x

Pensacola - 115nm Ese Of Pensacola, Fl (42039) Wave Buoy

10:50pm - Mon 16th Jan 2017 All times are CST. -6 hours from GMT.

  • Sig Wave height 4.9ft
  • Swell Direction
  • Peak Period 7s
  • Average Period 5s
  • Wind
    20mph, 22mph gusts
  • Sea Temp 75°f
  • Air Temp 74°f
  • Sea Pressure 1022.3mb
  • Pensacola - 115nm Ese Of Pensacola, Fl
  • Pensacola - 115nm Ese Of Pensacola, Fl

More Historic Weather Station data

Upgrade to MSW Pro to gain access to the past 30 days of data for over 8000 Wavebouys and Weather Stations around the globe.

Join Pro

Comparision Forecast

View Surf forecast
   
Mon 01/16 10:50pm 5ft 7s 5s 20 22 mph 1022.3mb 75f 74f
9:50pm 4.5ft 7s 5s 20 22 mph 1022.7mb 75f 74f
8:50pm 5ft 6s 5s 18 22 mph 1022.9mb 75f 74f
7:50pm 5ft 6s 5s 20 22 mph 1022.8mb 75f 74f
6:50pm 5ft 6s 5s 18 20 mph 1022.4mb 75f 74f
5:50pm 5ft 7s 5s 18 20 mph 1022.2mb 75f 74f
4:50pm 5.5ft 6s 5s 20 22 mph 1022mb 75f 74f
3:50pm 5ft 6s 5s 20 22 mph 1021.4mb 75f 74f
2:50pm 5.5ft 7s 5s 22 25 mph 1021mb 75f 75f
1:50pm 5ft 7s 5s 22 27 mph 1021.4mb 75f 75f
12:50pm 4.5ft 6s 4s 22 25 mph 1022.3mb 75f 74f
11:50am 4ft 5s 4s 16 22 mph 1023.1mb 75f 74f
10:50am 4ft 6s 4s 20 25 mph 1023.8mb 75f 74f
9:50am 3.5ft 5s 4s 20 25 mph 1024mb 76f 75f
8:50am 3.5ft 5s 4s 20 22 mph 1023.2mb 75f 76f
7:50am 3.5ft 4s 4s 16 18 mph 1022.8mb 75f 75f
6:50am 3.5ft 5s 4s 18 20 mph 1022.1mb 75f 74f
5:50am 3.5ft 4s 4s 20 22 mph 1021.7mb 75f 73f
4:50am 3.5ft 5s 4s 18 20 mph 1021.2mb 75f 74f
3:50am 2.5ft 5s 4s 18 20 mph 1020.9mb 75f 74f
2:50am 3ft 5s 4s 16 20 mph 1021.2mb 75f 74f
1:50am 3.5ft 6s 4s 16 18 mph 1021.9mb 75f 73f
12:50am 3.5ft 6s 4s 13 18 mph 1021.4mb 75f 74f
Sun 01/15 11:50pm 3.5ft 5s 4s 18 22 mph 1021.3mb 75f 74f
10:50pm 3.5ft 6s 4s 16 20 mph 1021.9mb 75f 74f
9:50pm 3ft 6s 4s 16 18 mph 1022.5mb 75f 73f
8:50pm 3.5ft 5s 4s 16 18 mph 1022.7mb 75f 73f
7:50pm 3ft 5s 4s 16 20 mph 1022.6mb 75f 73f
6:50pm 3ft 5s 4s 16 18 mph 1022.5mb 75f 73f
5:50pm 3ft 5s 4s 16 18 mph 1022.5mb 75f 73f
4:50pm 3ft 5s 4s 16
mph
1022.5mb 75f 73f
3:50pm 3ft 5s 4s 13 16 mph 1022.5mb 75f 73f
2:50pm 3ft 5s 4s 13 16 mph 1022.5mb 76f 73f
1:50pm 3ft 5s 4s 13 18 mph 1022.5mb 76f 74f
12:50pm 2.5ft 5s 4s 16 18 mph 1022.8mb 76f 74f
11:50am 3ft 4s 4s 13 18 mph 1024mb 76f 74f
10:50am 2.5ft 5s 4s 16 18 mph 1024.9mb 76f 74f
9:50am 2.5ft 4s 4s 16 18 mph 1025.7mb 76f 74f
8:50am 2.5ft 4s 4s 13 18 mph 1025.7mb 76f 74f
7:50am 2.5ft 5s 4s 16 18 mph 1025.2mb 76f 73f
6:50am 2.5ft 4s 4s 11 16 mph 1025mb 76f 72f
5:50am 2.5ft 4s 4s 16 18 mph 1024.7mb 75f 73f
4:50am 2.5ft 4s 4s 13 18 mph 1024.7mb 75f 73f
3:50am 2.5ft 3s 4s 16 18 mph 1024.9mb 75f 73f
2:50am 2.5ft 5s 4s 16 18 mph 1025mb 75f 74f
1:50am 2.5ft 5s 4s 13 16 mph 1025.6mb 75f 73f
12:50am 2.5ft 5s 4s 13 16 mph 1026.1mb 75f 73f
Sat 01/14 11:50pm 2.5ft 5s 4s 13 16 mph 1026.3mb 75f 73f
10:50pm 2.5ft 5s 4s 11 16 mph 1027.1mb 75f 73f
9:50pm 2.5ft 5s 4s 13 16 mph 1027.4mb 75f 73f
8:50pm 2.5ft 6s 4s 13 18 mph 1027.5mb 75f 73f
7:50pm 2.5ft 5s 4s 13 16 mph 1027.8mb 75f 73f
6:50pm 2.5ft 6s 4s 13
mph
1027.6mb 75f 73f
5:50pm 2.5ft 6s 4s 13 16 mph 1027.3mb 75f 72f
4:50pm 2.5ft 5s 4s 13 16 mph 1027.4mb 76f 72f
3:50pm 2.5ft 5s 4s 11 16 mph 1027.3mb 76f 73f
2:50pm 2.5ft 5s 4s 9 11 mph 1027.4mb 76f 73f
1:50pm 2.5ft 5s 4s 13 16 mph 1027.6mb 76f 73f
12:50pm 3ft 6s 4s 11 13 mph 1028.1mb 76f 73f
11:50am 2.5ft 4s 4s 13 16 mph 1028.8mb 76f 73f
10:50am 3ft 5s 4s 13 18 mph 1029.8mb 76f 74f
9:50am 3ft 5s 4s 13 16 mph 1030.3mb 75f 73f
8:50am 3ft 6s 4s 13
mph
1030.2mb 75f 73f
7:50am 3ft 5s 4s 13 16 mph 1029.9mb 75f 73f
6:50am 3ft 5s 4s 13 16 mph 1029.2mb 75f 73f
5:50am 3.5ft 6s 4s 16 18 mph 1028.7mb 75f 73f
4:50am 3ft 7s 4s 13 18 mph 1028.4mb 75f 73f
3:50am 3ft 6s 4s 16 18 mph 1028.5mb 75f 73f
2:50am 3ft 6s 4s 16 20 mph 1028.6mb 76f 74f
1:50am 2.5ft 6s 4s 16 20 mph 1028.9mb 76f 74f
12:50am 2.5ft 6s 4s 13 18 mph 1029.1mb 76f 74f
Fri 01/13 11:50pm 2.5ft 7s 4s 13 16 mph 1029.3mb 76f 73f
10:50pm 2.5ft 4s 4s 13 16 mph 1029.9mb 76f 73f
9:50pm 2.5ft 4s 4s 13 16 mph 1030.4mb 76f 73f
8:50pm 2.5ft 5s 4s 13 16 mph 1030.4mb 76f 73f
7:50pm 2.5ft 4s 4s 13 16 mph 1030.5mb 76f 72f
6:50pm 2.5ft 5s 4s 13 16 mph 1030.2mb 76f 73f
5:50pm 2.5ft 5s 4s 13 18 mph 1029.8mb 76f 72f
4:50pm 2.5ft 5s 4s 13 16 mph 1029.7mb 76f 73f
3:50pm 2.5ft 5s 4s 13 16 mph 1029.3mb 76f 73f
2:50pm 2.5ft 6s 4s 11 16 mph 1029mb 76f 74f
1:50pm 3ft 6s 5s 11 13 mph 1028.8mb 76f 73f
12:50pm 2.5ft 6s 4s 11 13 mph 1029.2mb 76f 73f
11:50am 2.5ft 7s 4s 11 16 mph 1029.9mb 75f 73f
10:50am 2.5ft 6s 4s 11
mph
1030.7mb 75f 73f
9:50am 2.5ft 7s 4s 13
mph
1031.1mb 75f 73f
8:50am 3ft 5s 4s 9 13 mph 1030.9mb 75f 73f
7:50am 3.5ft 7s 5s 11 13 mph 1030mb 75f 73f
6:50am 3.5ft 7s 4s 13 16 mph 1029.2mb 75f 72f